sensor_id;sensor_type;location;lat;lon;timestamp;P1;durP1;ratioP1;P2;durP2;ratioP2
20557;SDS011;10437;48.156;11.530;2023-08-24T00:00:43;8.90;;;5.50;;
20557;SDS011;10437;48.156;11.530;2023-08-24T00:03:11;7.63;;;5.57;;
20557;SDS011;10437;48.156;11.530;2023-08-24T00:05:38;9.00;;;5.40;;
20557;SDS011;10437;48.156;11.530;2023-08-24T00:08:06;10.75;;;4.80;;
20557;SDS011;10437;48.156;11.530;2023-08-24T00:10:34;8.00;;;5.10;;
20557;SDS011;10437;48.156;11.530;2023-08-24T00:13:01;8.45;;;5.47;;
20557;SDS011;10437;48.156;11.530;2023-08-24T00:15:29;8.13;;;5.05;;
20557;SDS011;10437;48.156;11.530;2023-08-24T00:17:56;7.47;;;5.07;;
20557;SDS011;10437;48.156;11.530;2023-08-24T00:20:24;8.45;;;5.35;;
20557;SDS011;10437;48.156;11.530;2023-08-24T00:22:52;6.68;;;5.35;;
20557;SDS011;10437;48.156;11.530;2023-08-24T00:25:19;8.90;;;5.53;;
20557;SDS011;10437;48.156;11.530;2023-08-24T00:27:46;7.32;;;5.03;;
20557;SDS011;10437;48.156;11.530;2023-08-24T00:30:13;6.95;;;5.25;;
20557;SDS011;10437;48.156;11.530;2023-08-24T00:32:40;9.00;;;5.40;;
20557;SDS011;10437;48.156;11.530;2023-08-24T00:35:08;7.30;;;4.97;;
20557;SDS011;10437;48.156;11.530;2023-08-24T00:37:37;7.75;;;4.75;;
20557;SDS011;10437;48.156;11.530;2023-08-24T00:40:04;9.18;;;5.03;;
20557;SDS011;10437;48.156;11.530;2023-08-24T00:42:37;5.80;;;5.15;;
20557;SDS011;10437;48.156;11.530;2023-08-24T00:45:05;8.38;;;4.75;;
20557;SDS011;10437;48.156;11.530;2023-08-24T00:47:32;8.80;;;5.45;;
20557;SDS011;10437;48.156;11.530;2023-08-24T00:49:59;7.72;;;5.03;;
20557;SDS011;10437;48.156;11.530;2023-08-24T00:52:27;7.05;;;5.05;;
20557;SDS011;10437;48.156;11.530;2023-08-24T00:54:58;8.18;;;5.00;;
20557;SDS011;10437;48.156;11.530;2023-08-24T00:57:26;7.07;;;4.90;;
20557;SDS011;10437;48.156;11.530;2023-08-24T00:59:53;9.48;;;4.50;;
20557;SDS011;10437;48.156;11.530;2023-08-24T01:02:20;12.23;;;5.57;;
20557;SDS011;10437;48.156;11.530;2023-08-24T01:04:47;11.23;;;5.10;;
20557;SDS011;10437;48.156;11.530;2023-08-24T01:07:14;10.88;;;4.80;;
20557;SDS011;10437;48.156;11.530;2023-08-24T01:09:42;6.85;;;4.93;;
20557;SDS011;10437;48.156;11.530;2023-08-24T01:12:13;7.00;;;4.80;;
20557;SDS011;10437;48.156;11.530;2023-08-24T01:14:47;13.60;;;5.60;;
20557;SDS011;10437;48.156;11.530;2023-08-24T01:17:22;9.43;;;4.95;;
20557;SDS011;10437;48.156;11.530;2023-08-24T01:19:52;8.05;;;5.20;;
20557;SDS011;10437;48.156;11.530;2023-08-24T01:22:23;7.80;;;4.88;;
20557;SDS011;10437;48.156;11.530;2023-08-24T01:25:01;10.18;;;4.80;;
20557;SDS011;10437;48.156;11.530;2023-08-24T01:27:35;10.93;;;4.55;;
20557;SDS011;10437;48.156;11.530;2023-08-24T01:30:02;8.75;;;5.00;;
20557;SDS011;10437;48.156;11.530;2023-08-24T01:32:30;6.72;;;4.57;;
20557;SDS011;10437;48.156;11.530;2023-08-24T01:34:58;6.90;;;4.45;;
20557;SDS011;10437;48.156;11.530;2023-08-24T01:37:25;6.40;;;4.82;;
20557;SDS011;10437;48.156;11.530;2023-08-24T01:39:54;7.28;;;4.90;;
20557;SDS011;10437;48.156;11.530;2023-08-24T01:42:29;7.35;;;4.50;;
20557;SDS011;10437;48.156;11.530;2023-08-24T01:44:59;10.23;;;4.72;;
20557;SDS011;10437;48.156;11.530;2023-08-24T01:47:32;9.77;;;4.82;;
20557;SDS011;10437;48.156;11.530;2023-08-24T01:50:01;8.52;;;5.13;;
20557;SDS011;10437;48.156;11.530;2023-08-24T01:52:29;8.52;;;5.20;;
20557;SDS011;10437;48.156;11.530;2023-08-24T01:54:56;8.35;;;4.90;;
20557;SDS011;10437;48.156;11.530;2023-08-24T01:57:23;10.40;;;5.13;;
20557;SDS011;10437;48.156;11.530;2023-08-24T01:59:49;8.27;;;4.68;;
20557;SDS011;10437;48.156;11.530;2023-08-24T02:02:18;11.23;;;5.45;;
20557;SDS011;10437;48.156;11.530;2023-08-24T02:04:45;13.70;;;5.38;;
20557;SDS011;10437;48.156;11.530;2023-08-24T02:07:12;8.70;;;5.28;;
20557;SDS011;10437;48.156;11.530;2023-08-24T02:09:39;7.70;;;4.75;;
20557;SDS011;10437;48.156;11.530;2023-08-24T02:12:06;8.05;;;5.35;;
20557;SDS011;10437;48.156;11.530;2023-08-24T02:14:33;6.70;;;5.05;;
20557;SDS011;10437;48.156;11.530;2023-08-24T02:17:00;11.02;;;5.20;;
20557;SDS011;10437;48.156;11.530;2023-08-24T02:19:29;5.72;;;4.88;;
20557;SDS011;10437;48.156;11.530;2023-08-24T02:21:57;7.70;;;5.47;;
20557;SDS011;10437;48.156;11.530;2023-08-24T02:24:24;7.32;;;5.00;;
20557;SDS011;10437;48.156;11.530;2023-08-24T02:26:51;7.03;;;5.38;;
20557;SDS011;10437;48.156;11.530;2023-08-24T02:29:18;8.90;;;5.40;;
20557;SDS011;10437;48.156;11.530;2023-08-24T02:31:44;9.30;;;5.57;;
20557;SDS011;10437;48.156;11.530;2023-08-24T02:34:11;9.75;;;5.65;;
20557;SDS011;10437;48.156;11.530;2023-08-24T02:36:39;7.15;;;5.03;;
20557;SDS011;10437;48.156;11.530;2023-08-24T02:39:06;7.18;;;5.43;;
20557;SDS011;10437;48.156;11.530;2023-08-24T02:41:34;15.48;;;6.30;;
20557;SDS011;10437;48.156;11.530;2023-08-24T02:44:01;9.55;;;6.10;;
20557;SDS011;10437;48.156;11.530;2023-08-24T02:46:28;11.90;;;5.45;;
20557;SDS011;10437;48.156;11.530;2023-08-24T02:48:55;13.25;;;5.47;;
20557;SDS011;10437;48.156;11.530;2023-08-24T02:51:23;9.43;;;5.60;;
20557;SDS011;10437;48.156;11.530;2023-08-24T02:53:51;7.88;;;5.53;;
20557;SDS011;10437;48.156;11.530;2023-08-24T02:56:18;7.97;;;5.80;;
20557;SDS011;10437;48.156;11.530;2023-08-24T02:58:45;10.60;;;5.80;;
20557;SDS011;10437;48.156;11.530;2023-08-24T03:01:12;12.38;;;5.35;;
20557;SDS011;10437;48.156;11.530;2023-08-24T03:03:38;11.40;;;6.10;;
20557;SDS011;10437;48.156;11.530;2023-08-24T03:06:06;11.82;;;5.90;;
20557;SDS011;10437;48.156;11.530;2023-08-24T03:08:34;15.18;;;5.45;;
20557;SDS011;10437;48.156;11.530;2023-08-24T03:11:02;12.05;;;5.82;;
20557;SDS011;10437;48.156;11.530;2023-08-24T03:13:30;10.43;;;5.82;;
20557;SDS011;10437;48.156;11.530;2023-08-24T03:15:57;10.10;;;5.75;;
20557;SDS011;10437;48.156;11.530;2023-08-24T03:18:30;9.07;;;5.13;;
20557;SDS011;10437;48.156;11.530;2023-08-24T03:20:56;7.95;;;4.90;;
20557;SDS011;10437;48.156;11.530;2023-08-24T03:23:23;9.23;;;5.50;;
20557;SDS011;10437;48.156;11.530;2023-08-24T03:25:50;10.75;;;5.85;;
20557;SDS011;10437;48.156;11.530;2023-08-24T03:28:19;7.72;;;5.57;;
20557;SDS011;10437;48.156;11.530;2023-08-24T03:30:46;9.48;;;5.78;;
20557;SDS011;10437;48.156;11.530;2023-08-24T03:33:14;9.23;;;5.30;;
20557;SDS011;10437;48.156;11.530;2023-08-24T03:35:41;7.25;;;5.57;;
20557;SDS011;10437;48.156;11.530;2023-08-24T03:38:08;8.88;;;5.47;;
20557;SDS011;10437;48.156;11.530;2023-08-24T03:40:35;11.85;;;6.25;;
20557;SDS011;10437;48.156;11.530;2023-08-24T03:43:02;9.88;;;5.50;;
20557;SDS011;10437;48.156;11.530;2023-08-24T03:45:31;13.82;;;5.18;;
20557;SDS011;10437;48.156;11.530;2023-08-24T03:47:58;8.15;;;5.25;;
20557;SDS011;10437;48.156;11.530;2023-08-24T03:50:25;9.35;;;5.45;;
20557;SDS011;10437;48.156;11.530;2023-08-24T03:52:54;8.60;;;5.15;;
20557;SDS011;10437;48.156;11.530;2023-08-24T03:55:21;7.65;;;5.22;;
20557;SDS011;10437;48.156;11.530;2023-08-24T03:57:48;7.60;;;5.63;;
20557;SDS011;10437;48.156;11.530;2023-08-24T04:00:14;6.93;;;5.18;;
20557;SDS011;10437;48.156;11.530;2023-08-24T04:02:43;10.00;;;5.38;;
20557;SDS011;10437;48.156;11.530;2023-08-24T04:05:11;8.07;;;5.47;;
20557;SDS011;10437;48.156;11.530;2023-08-24T04:07:38;12.85;;;4.95;;
20557;SDS011;10437;48.156;11.530;2023-08-24T04:10:06;11.02;;;5.95;;
20557;SDS011;10437;48.156;11.530;2023-08-24T04:12:34;8.15;;;5.40;;
20557;SDS011;10437;48.156;11.530;2023-08-24T04:15:01;8.15;;;5.40;;
20557;SDS011;10437;48.156;11.530;2023-08-24T04:17:29;9.50;;;5.32;;
20557;SDS011;10437;48.156;11.530;2023-08-24T04:19:58;11.25;;;5.68;;
20557;SDS011;10437;48.156;11.530;2023-08-24T04:22:24;10.10;;;5.55;;
20557;SDS011;10437;48.156;11.530;2023-08-24T04:24:52;8.68;;;5.65;;
20557;SDS011;10437;48.156;11.530;2023-08-24T04:27:19;10.70;;;6.00;;
20557;SDS011;10437;48.156;11.530;2023-08-24T04:29:47;9.00;;;5.95;;
20557;SDS011;10437;48.156;11.530;2023-08-24T04:32:13;7.40;;;5.70;;
20557;SDS011;10437;48.156;11.530;2023-08-24T04:34:41;6.68;;;5.25;;
20557;SDS011;10437;48.156;11.530;2023-08-24T04:37:09;10.00;;;5.72;;
20557;SDS011;10437;48.156;11.530;2023-08-24T04:39:36;9.82;;;5.55;;
20557;SDS011;10437;48.156;11.530;2023-08-24T04:42:03;8.38;;;5.50;;
20557;SDS011;10437;48.156;11.530;2023-08-24T04:44:31;9.93;;;5.75;;
20557;SDS011;10437;48.156;11.530;2023-08-24T04:46:58;8.73;;;5.38;;
20557;SDS011;10437;48.156;11.530;2023-08-24T04:49:25;12.65;;;6.38;;
20557;SDS011;10437;48.156;11.530;2023-08-24T04:51:53;9.07;;;5.97;;
20557;SDS011;10437;48.156;11.530;2023-08-24T04:54:22;10.70;;;5.60;;
20557;SDS011;10437;48.156;11.530;2023-08-24T04:56:48;9.90;;;5.90;;
20557;SDS011;10437;48.156;11.530;2023-08-24T04:59:16;10.30;;;6.35;;
20557;SDS011;10437;48.156;11.530;2023-08-24T05:01:43;7.72;;;5.35;;
20557;SDS011;10437;48.156;11.530;2023-08-24T05:04:10;7.15;;;5.88;;
20557;SDS011;10437;48.156;11.530;2023-08-24T05:06:36;11.75;;;6.63;;
20557;SDS011;10437;48.156;11.530;2023-08-24T05:09:04;8.15;;;5.43;;
20557;SDS011;10437;48.156;11.530;2023-08-24T05:11:32;12.10;;;6.57;;
20557;SDS011;10437;48.156;11.530;2023-08-24T05:13:59;11.88;;;6.82;;
20557;SDS011;10437;48.156;11.530;2023-08-24T05:16:26;13.02;;;7.05;;
20557;SDS011;10437;48.156;11.530;2023-08-24T05:18:54;10.00;;;6.38;;
20557;SDS011;10437;48.156;11.530;2023-08-24T05:21:20;10.60;;;6.53;;
20557;SDS011;10437;48.156;11.530;2023-08-24T05:23:48;10.23;;;6.50;;
20557;SDS011;10437;48.156;11.530;2023-08-24T05:26:14;10.43;;;6.75;;
20557;SDS011;10437;48.156;11.530;2023-08-24T05:28:48;16.50;;;6.78;;
20557;SDS011;10437;48.156;11.530;2023-08-24T05:31:15;15.23;;;7.07;;
20557;SDS011;10437;48.156;11.530;2023-08-24T05:33:42;9.93;;;7.07;;
20557;SDS011;10437;48.156;11.530;2023-08-24T05:36:09;11.63;;;6.80;;
20557;SDS011;10437;48.156;11.530;2023-08-24T05:38:37;9.48;;;6.82;;
20557;SDS011;10437;48.156;11.530;2023-08-24T05:41:09;13.20;;;7.57;;
20557;SDS011;10437;48.156;11.530;2023-08-24T05:43:37;9.65;;;7.03;;
20557;SDS011;10437;48.156;11.530;2023-08-24T05:46:06;11.93;;;7.50;;
20557;SDS011;10437;48.156;11.530;2023-08-24T05:48:32;14.98;;;8.52;;
20557;SDS011;10437;48.156;11.530;2023-08-24T05:51:00;10.80;;;7.82;;
20557;SDS011;10437;48.156;11.530;2023-08-24T05:53:27;12.68;;;8.00;;
20557;SDS011;10437;48.156;11.530;2023-08-24T05:55:57;14.05;;;8.98;;
20557;SDS011;10437;48.156;11.530;2023-08-24T05:58:24;15.27;;;8.25;;
20557;SDS011;10437;48.156;11.530;2023-08-24T06:00:57;14.90;;;7.50;;
20557;SDS011;10437;48.156;11.530;2023-08-24T06:03:26;12.93;;;7.72;;
20557;SDS011;10437;48.156;11.530;2023-08-24T06:05:53;12.60;;;8.15;;
20557;SDS011;10437;48.156;11.530;2023-08-24T06:08:20;13.90;;;8.60;;
20557;SDS011;10437;48.156;11.530;2023-08-24T06:10:47;13.18;;;8.48;;
20557;SDS011;10437;48.156;11.530;2023-08-24T06:13:14;17.40;;;8.77;;
20557;SDS011;10437;48.156;11.530;2023-08-24T06:15:41;14.60;;;8.45;;
20557;SDS011;10437;48.156;11.530;2023-08-24T06:18:08;12.48;;;8.15;;
20557;SDS011;10437;48.156;11.530;2023-08-24T06:20:37;16.33;;;9.38;;
20557;SDS011;10437;48.156;11.530;2023-08-24T06:23:04;15.30;;;9.13;;
20557;SDS011;10437;48.156;11.530;2023-08-24T06:25:32;16.95;;;9.07;;
20557;SDS011;10437;48.156;11.530;2023-08-24T06:27:59;17.27;;;9.88;;
20557;SDS011;10437;48.156;11.530;2023-08-24T06:30:29;16.58;;;8.85;;
20557;SDS011;10437;48.156;11.530;2023-08-24T06:32:58;20.50;;;9.13;;
20557;SDS011;10437;48.156;11.530;2023-08-24T06:35:25;14.13;;;9.48;;
20557;SDS011;10437;48.156;11.530;2023-08-24T06:37:53;13.00;;;8.48;;
20557;SDS011;10437;48.156;11.530;2023-08-24T06:40:20;13.35;;;8.32;;
20557;SDS011;10437;48.156;11.530;2023-08-24T06:42:47;11.23;;;8.10;;
20557;SDS011;10437;48.156;11.530;2023-08-24T06:45:14;16.73;;;8.27;;
20557;SDS011;10437;48.156;11.530;2023-08-24T06:47:42;12.18;;;7.75;;
20557;SDS011;10437;48.156;11.530;2023-08-24T06:50:09;12.68;;;7.60;;
20557;SDS011;10437;48.156;11.530;2023-08-24T06:52:37;19.40;;;7.97;;
20557;SDS011;10437;48.156;11.530;2023-08-24T06:55:05;13.32;;;7.55;;
20557;SDS011;10437;48.156;11.530;2023-08-24T06:57:34;12.15;;;6.90;;
20557;SDS011;10437;48.156;11.530;2023-08-24T07:00:01;14.07;;;7.55;;
20557;SDS011;10437;48.156;11.530;2023-08-24T07:02:31;10.88;;;6.97;;
20557;SDS011;10437;48.156;11.530;2023-08-24T07:04:59;15.90;;;6.63;;
20557;SDS011;10437;48.156;11.530;2023-08-24T07:07:26;9.98;;;6.63;;
20557;SDS011;10437;48.156;11.530;2023-08-24T07:09:53;10.75;;;6.15;;
20557;SDS011;10437;48.156;11.530;2023-08-24T07:12:21;13.05;;;7.00;;
20557;SDS011;10437;48.156;11.530;2023-08-24T07:14:48;14.10;;;6.20;;
20557;SDS011;10437;48.156;11.530;2023-08-24T07:17:15;12.75;;;6.63;;
20557;SDS011;10437;48.156;11.530;2023-08-24T07:19:43;15.20;;;7.43;;
20557;SDS011;10437;48.156;11.530;2023-08-24T07:22:10;16.90;;;6.72;;
20557;SDS011;10437;48.156;11.530;2023-08-24T07:24:37;13.15;;;6.93;;
20557;SDS011;10437;48.156;11.530;2023-08-24T07:27:04;14.68;;;7.05;;
20557;SDS011;10437;48.156;11.530;2023-08-24T07:29:33;12.38;;;7.18;;
20557;SDS011;10437;48.156;11.530;2023-08-24T07:31:59;8.43;;;6.43;;
20557;SDS011;10437;48.156;11.530;2023-08-24T07:34:26;11.05;;;6.78;;
20557;SDS011;10437;48.156;11.530;2023-08-24T07:36:54;9.48;;;6.75;;
20557;SDS011;10437;48.156;11.530;2023-08-24T07:39:22;8.75;;;6.43;;
20557;SDS011;10437;48.156;11.530;2023-08-24T07:41:49;9.00;;;6.95;;
20557;SDS011;10437;48.156;11.530;2023-08-24T07:44:16;14.93;;;7.43;;
20557;SDS011;10437;48.156;11.530;2023-08-24T07:46:44;17.00;;;7.10;;
20557;SDS011;10437;48.156;11.530;2023-08-24T07:49:12;10.35;;;6.40;;
20557;SDS011;10437;48.156;11.530;2023-08-24T07:51:40;13.48;;;7.20;;
20557;SDS011;10437;48.156;11.530;2023-08-24T07:54:07;12.07;;;6.95;;
20557;SDS011;10437;48.156;11.530;2023-08-24T07:56:35;14.05;;;7.20;;
20557;SDS011;10437;48.156;11.530;2023-08-24T07:59:02;11.43;;;6.35;;
20557;SDS011;10437;48.156;11.530;2023-08-24T08:01:29;11.98;;;7.10;;
20557;SDS011;10437;48.156;11.530;2023-08-24T08:03:57;8.23;;;6.88;;
20557;SDS011;10437;48.156;11.530;2023-08-24T08:06:25;10.32;;;6.93;;
20557;SDS011;10437;48.156;11.530;2023-08-24T08:08:52;10.68;;;7.35;;
20557;SDS011;10437;48.156;11.530;2023-08-24T08:11:19;13.95;;;7.40;;
20557;SDS011;10437;48.156;11.530;2023-08-24T08:13:47;10.15;;;7.00;;
20557;SDS011;10437;48.156;11.530;2023-08-24T08:16:14;9.45;;;6.07;;
20557;SDS011;10437;48.156;11.530;2023-08-24T08:18:41;12.40;;;6.93;;
20557;SDS011;10437;48.156;11.530;2023-08-24T08:21:09;10.68;;;6.38;;
20557;SDS011;10437;48.156;11.530;2023-08-24T08:23:37;10.05;;;6.55;;
20557;SDS011;10437;48.156;11.530;2023-08-24T08:26:04;7.40;;;6.35;;
20557;SDS011;10437;48.156;11.530;2023-08-24T08:28:32;13.27;;;6.03;;
20557;SDS011;10437;48.156;11.530;2023-08-24T08:30:59;9.65;;;6.50;;
20557;SDS011;10437;48.156;11.530;2023-08-24T08:33:27;9.00;;;6.38;;
20557;SDS011;10437;48.156;11.530;2023-08-24T08:35:54;8.88;;;6.10;;
20557;SDS011;10437;48.156;11.530;2023-08-24T08:38:22;9.65;;;6.88;;
20557;SDS011;10437;48.156;11.530;2023-08-24T08:40:51;14.90;;;6.75;;
20557;SDS011;10437;48.156;11.530;2023-08-24T08:43:23;10.32;;;6.28;;
20557;SDS011;10437;48.156;11.530;2023-08-24T08:45:50;9.07;;;6.57;;
20557;SDS011;10437;48.156;11.530;2023-08-24T08:48:19;9.95;;;6.20;;
20557;SDS011;10437;48.156;11.530;2023-08-24T08:50:47;9.55;;;6.80;;
20557;SDS011;10437;48.156;11.530;2023-08-24T08:53:15;10.77;;;6.35;;
20557;SDS011;10437;48.156;11.530;2023-08-24T08:55:43;12.38;;;6.68;;
20557;SDS011;10437;48.156;11.530;2023-08-24T08:58:11;7.85;;;6.38;;
20557;SDS011;10437;48.156;11.530;2023-08-24T09:00:39;7.25;;;5.97;;
20557;SDS011;10437;48.156;11.530;2023-08-24T09:03:06;11.75;;;6.20;;
20557;SDS011;10437;48.156;11.530;2023-08-24T09:05:34;9.80;;;6.63;;
20557;SDS011;10437;48.156;11.530;2023-08-24T09:08:04;10.82;;;5.75;;
20557;SDS011;10437;48.156;11.530;2023-08-24T09:10:31;11.30;;;6.45;;
20557;SDS011;10437;48.156;11.530;2023-08-24T09:13:00;9.45;;;6.38;;
20557;SDS011;10437;48.156;11.530;2023-08-24T09:15:27;13.13;;;6.43;;
20557;SDS011;10437;48.156;11.530;2023-08-24T09:18:00;9.88;;;6.15;;
20557;SDS011;10437;48.156;11.530;2023-08-24T09:20:28;12.13;;;6.63;;
20557;SDS011;10437;48.156;11.530;2023-08-24T09:22:55;9.02;;;6.60;;
20557;SDS011;10437;48.156;11.530;2023-08-24T09:25:23;10.15;;;5.90;;
20557;SDS011;10437;48.156;11.530;2023-08-24T09:27:55;12.45;;;5.95;;
20557;SDS011;10437;48.156;11.530;2023-08-24T09:30:23;11.15;;;6.13;;
20557;SDS011;10437;48.156;11.530;2023-08-24T09:32:55;9.43;;;6.35;;
20557;SDS011;10437;48.156;11.530;2023-08-24T09:35:22;16.90;;;6.50;;
20557;SDS011;10437;48.156;11.530;2023-08-24T09:37:49;11.38;;;6.45;;
20557;SDS011;10437;48.156;11.530;2023-08-24T09:40:23;9.23;;;6.40;;
20557;SDS011;10437;48.156;11.530;2023-08-24T09:42:50;11.27;;;6.53;;
20557;SDS011;10437;48.156;11.530;2023-08-24T09:45:18;11.25;;;6.13;;
20557;SDS011;10437;48.156;11.530;2023-08-24T09:47:48;11.63;;;7.03;;
20557;SDS011;10437;48.156;11.530;2023-08-24T09:50:16;7.70;;;6.53;;
20557;SDS011;10437;48.156;11.530;2023-08-24T09:52:43;10.82;;;6.82;;
20557;SDS011;10437;48.156;11.530;2023-08-24T09:55:13;10.85;;;6.15;;
20557;SDS011;10437;48.156;11.530;2023-08-24T09:57:46;10.93;;;6.20;;
20557;SDS011;10437;48.156;11.530;2023-08-24T10:00:17;12.65;;;6.30;;
20557;SDS011;10437;48.156;11.530;2023-08-24T10:02:51;9.23;;;6.15;;
20557;SDS011;10437;48.156;11.530;2023-08-24T10:05:19;11.25;;;6.47;;
20557;SDS011;10437;48.156;11.530;2023-08-24T10:07:49;9.27;;;5.93;;
20557;SDS011;10437;48.156;11.530;2023-08-24T10:10:20;9.65;;;6.45;;
20557;SDS011;10437;48.156;11.530;2023-08-24T10:12:50;11.52;;;6.20;;
20557;SDS011;10437;48.156;11.530;2023-08-24T10:15:18;8.55;;;5.88;;
20557;SDS011;10437;48.156;11.530;2023-08-24T10:17:47;8.45;;;5.68;;
20557;SDS011;10437;48.156;11.530;2023-08-24T10:20:17;9.90;;;6.22;;
20557;SDS011;10437;48.156;11.530;2023-08-24T10:22:45;8.30;;;6.03;;
20557;SDS011;10437;48.156;11.530;2023-08-24T10:25:13;14.98;;;6.55;;
20557;SDS011;10437;48.156;11.530;2023-08-24T10:27:43;9.40;;;5.82;;
20557;SDS011;10437;48.156;11.530;2023-08-24T10:30:13;8.68;;;5.75;;
20557;SDS011;10437;48.156;11.530;2023-08-24T10:32:41;8.25;;;5.97;;
20557;SDS011;10437;48.156;11.530;2023-08-24T10:35:08;11.80;;;6.32;;
20557;SDS011;10437;48.156;11.530;2023-08-24T10:37:36;10.20;;;5.88;;
20557;SDS011;10437;48.156;11.530;2023-08-24T10:40:04;7.38;;;6.00;;
20557;SDS011;10437;48.156;11.530;2023-08-24T10:42:42;10.20;;;5.72;;
20557;SDS011;10437;48.156;11.530;2023-08-24T10:45:10;12.55;;;5.35;;
20557;SDS011;10437;48.156;11.530;2023-08-24T10:47:43;8.88;;;5.55;;
20557;SDS011;10437;48.156;11.530;2023-08-24T10:50:10;11.25;;;6.03;;
20557;SDS011;10437;48.156;11.530;2023-08-24T10:52:39;9.63;;;5.78;;
20557;SDS011;10437;48.156;11.530;2023-08-24T10:55:21;8.75;;;5.80;;
20557;SDS011;10437;48.156;11.530;2023-08-24T10:57:55;9.88;;;5.72;;
20557;SDS011;10437;48.156;11.530;2023-08-24T11:00:25;11.23;;;4.57;;
20557;SDS011;10437;48.156;11.530;2023-08-24T11:02:53;9.77;;;5.43;;
20557;SDS011;10437;48.156;11.530;2023-08-24T11:05:20;10.68;;;5.93;;
20557;SDS011;10437;48.156;11.530;2023-08-24T11:07:49;9.25;;;5.70;;
20557;SDS011;10437;48.156;11.530;2023-08-24T11:10:17;9.80;;;5.45;;
20557;SDS011;10437;48.156;11.530;2023-08-24T11:15:31;8.80;;;5.50;;
20557;SDS011;10437;48.156;11.530;2023-08-24T11:20:45;9.40;;;5.35;;
20557;SDS011;10437;48.156;11.530;2023-08-24T11:23:14;10.13;;;5.10;;
20557;SDS011;10437;48.156;11.530;2023-08-24T11:25:42;12.60;;;5.85;;
20557;SDS011;10437;48.156;11.530;2023-08-24T11:28:09;10.00;;;4.88;;
20557;SDS011;10437;48.156;11.530;2023-08-24T11:30:36;11.15;;;4.25;;
20557;SDS011;10437;48.156;11.530;2023-08-24T11:33:03;7.22;;;4.43;;
20557;SDS011;10437;48.156;11.530;2023-08-24T11:35:34;8.82;;;5.22;;
20557;SDS011;10437;48.156;11.530;2023-08-24T11:38:02;12.80;;;5.15;;
20557;SDS011;10437;48.156;11.530;2023-08-24T11:40:31;10.55;;;5.20;;
20557;SDS011;10437;48.156;11.530;2023-08-24T11:42:58;15.13;;;4.68;;
20557;SDS011;10437;48.156;11.530;2023-08-24T11:45:29;10.82;;;4.32;;
20557;SDS011;10437;48.156;11.530;2023-08-24T11:47:57;8.95;;;3.80;;
20557;SDS011;10437;48.156;11.530;2023-08-24T11:50:25;6.95;;;3.60;;
20557;SDS011;10437;48.156;11.530;2023-08-24T11:52:53;12.60;;;4.03;;
20557;SDS011;10437;48.156;11.530;2023-08-24T11:55:20;12.63;;;3.92;;
20557;SDS011;10437;48.156;11.530;2023-08-24T11:57:49;9.82;;;3.90;;
20557;SDS011;10437;48.156;11.530;2023-08-24T12:00:16;13.77;;;4.05;;
20557;SDS011;10437;48.156;11.530;2023-08-24T12:02:46;14.10;;;3.90;;
20557;SDS011;10437;48.156;11.530;2023-08-24T12:05:20;16.90;;;4.22;;
20557;SDS011;10437;48.156;11.530;2023-08-24T12:07:48;9.73;;;3.97;;
20557;SDS011;10437;48.156;11.530;2023-08-24T12:10:15;14.30;;;3.95;;
20557;SDS011;10437;48.156;11.530;2023-08-24T12:12:42;14.82;;;3.60;;
20557;SDS011;10437;48.156;11.530;2023-08-24T12:15:16;12.82;;;3.15;;
20557;SDS011;10437;48.156;11.530;2023-08-24T12:17:45;9.52;;;2.90;;
20557;SDS011;10437;48.156;11.530;2023-08-24T12:20:18;10.05;;;3.30;;
20557;SDS011;10437;48.156;11.530;2023-08-24T12:22:50;8.73;;;2.88;;
20557;SDS011;10437;48.156;11.530;2023-08-24T12:25:18;11.50;;;2.75;;
20557;SDS011;10437;48.156;11.530;2023-08-24T12:27:45;13.73;;;3.10;;
20557;SDS011;10437;48.156;11.530;2023-08-24T12:30:12;12.80;;;3.80;;
20557;SDS011;10437;48.156;11.530;2023-08-24T12:32:44;9.88;;;3.10;;
20557;SDS011;10437;48.156;11.530;2023-08-24T12:35:13;18.17;;;3.13;;
20557;SDS011;10437;48.156;11.530;2023-08-24T12:37:41;17.85;;;3.53;;
20557;SDS011;10437;48.156;11.530;2023-08-24T12:40:08;12.05;;;3.40;;
20557;SDS011;10437;48.156;11.530;2023-08-24T12:42:35;10.25;;;3.15;;
20557;SDS011;10437;48.156;11.530;2023-08-24T12:45:04;13.02;;;3.42;;
20557;SDS011;10437;48.156;11.530;2023-08-24T12:47:31;11.02;;;3.35;;
20557;SDS011;10437;48.156;11.530;2023-08-24T12:50:04;10.88;;;3.75;;
20557;SDS011;10437;48.156;11.530;2023-08-24T12:52:32;10.82;;;3.35;;
20557;SDS011;10437;48.156;11.530;2023-08-24T12:55:00;13.35;;;3.75;;
20557;SDS011;10437;48.156;11.530;2023-08-24T12:57:29;12.35;;;3.25;;
20557;SDS011;10437;48.156;11.530;2023-08-24T12:59:56;8.82;;;3.25;;
20557;SDS011;10437;48.156;11.530;2023-08-24T13:02:23;13.07;;;3.80;;
20557;SDS011;10437;48.156;11.530;2023-08-24T13:04:50;11.82;;;3.53;;
20557;SDS011;10437;48.156;11.530;2023-08-24T13:07:18;10.18;;;3.63;;
20557;SDS011;10437;48.156;11.530;2023-08-24T13:09:46;14.00;;;4.13;;
20557;SDS011;10437;48.156;11.530;2023-08-24T13:12:13;13.70;;;3.53;;
20557;SDS011;10437;48.156;11.530;2023-08-24T13:14:40;11.95;;;3.60;;
20557;SDS011;10437;48.156;11.530;2023-08-24T13:17:07;10.65;;;4.25;;
20557;SDS011;10437;48.156;11.530;2023-08-24T13:19:34;13.00;;;4.18;;
20557;SDS011;10437;48.156;11.530;2023-08-24T13:22:01;9.40;;;4.05;;
20557;SDS011;10437;48.156;11.530;2023-08-24T13:24:29;8.48;;;3.92;;
20557;SDS011;10437;48.156;11.530;2023-08-24T13:26:56;7.75;;;3.83;;
20557;SDS011;10437;48.156;11.530;2023-08-24T13:29:23;11.70;;;4.15;;
20557;SDS011;10437;48.156;11.530;2023-08-24T13:31:50;13.27;;;4.05;;
20557;SDS011;10437;48.156;11.530;2023-08-24T13:34:18;12.80;;;4.40;;
20557;SDS011;10437;48.156;11.530;2023-08-24T13:36:45;14.27;;;4.03;;
20557;SDS011;10437;48.156;11.530;2023-08-24T13:39:12;8.57;;;4.53;;
20557;SDS011;10437;48.156;11.530;2023-08-24T13:41:40;11.60;;;4.32;;
20557;SDS011;10437;48.156;11.530;2023-08-24T13:44:08;13.73;;;4.85;;
20557;SDS011;10437;48.156;11.530;2023-08-24T13:46:35;9.70;;;4.15;;
20557;SDS011;10437;48.156;11.530;2023-08-24T13:49:02;8.75;;;4.18;;
20557;SDS011;10437;48.156;11.530;2023-08-24T13:51:29;8.57;;;4.60;;
20557;SDS011;10437;48.156;11.530;2023-08-24T13:53:56;18.48;;;4.55;;
20557;SDS011;10437;48.156;11.530;2023-08-24T13:56:23;15.07;;;4.75;;
20557;SDS011;10437;48.156;11.530;2023-08-24T13:58:52;11.27;;;4.55;;
20557;SDS011;10437;48.156;11.530;2023-08-24T14:01:19;10.15;;;4.07;;
20557;SDS011;10437;48.156;11.530;2023-08-24T14:03:46;16.38;;;4.38;;
20557;SDS011;10437;48.156;11.530;2023-08-24T14:06:14;16.35;;;4.75;;
20557;SDS011;10437;48.156;11.530;2023-08-24T14:08:41;13.10;;;4.45;;
20557;SDS011;10437;48.156;11.530;2023-08-24T14:11:08;9.60;;;4.97;;
20557;SDS011;10437;48.156;11.530;2023-08-24T14:13:35;13.50;;;4.82;;
20557;SDS011;10437;48.156;11.530;2023-08-24T14:16:04;12.52;;;4.20;;
20557;SDS011;10437;48.156;11.530;2023-08-24T14:18:31;17.70;;;4.68;;
20557;SDS011;10437;48.156;11.530;2023-08-24T14:20:57;14.18;;;4.57;;
20557;SDS011;10437;48.156;11.530;2023-08-24T14:23:25;14.88;;;4.47;;
20557;SDS011;10437;48.156;11.530;2023-08-24T14:25:51;8.20;;;4.15;;
20557;SDS011;10437;48.156;11.530;2023-08-24T14:28:19;9.90;;;4.18;;
20557;SDS011;10437;48.156;11.530;2023-08-24T14:30:48;15.63;;;5.13;;
20557;SDS011;10437;48.156;11.530;2023-08-24T14:33:16;14.60;;;4.75;;
20557;SDS011;10437;48.156;11.530;2023-08-24T14:35:49;9.40;;;4.40;;
20557;SDS011;10437;48.156;11.530;2023-08-24T14:38:17;14.93;;;4.32;;